sensor_id;sensor_type;location;lat;lon;timestamp;temperature;humidity
70851;DHT22;58475;49.662;9.636;2024-01-15T00:01:07;-2.46;86.73
70851;DHT22;58475;49.662;9.636;2024-01-15T00:03:32;-2.51;86.52
70851;DHT22;58475;49.662;9.636;2024-01-15T00:05:57;-2.48;86.95
70851;DHT22;58475;49.662;9.636;2024-01-15T00:08:23;-2.58;87.32
70851;DHT22;58475;49.662;9.636;2024-01-15T00:10:48;-2.62;87.53
70851;DHT22;58475;49.662;9.636;2024-01-15T00:13:13;-2.60;87.68
70851;DHT22;58475;49.662;9.636;2024-01-15T00:15:39;-2.61;87.86
70851;DHT22;58475;49.662;9.636;2024-01-15T00:18:05;-2.57;87.80
70851;DHT22;58475;49.662;9.636;2024-01-15T00:20:30;-2.54;87.47
70851;DHT22;58475;49.662;9.636;2024-01-15T00:22:55;-2.53;87.96
70851;DHT22;58475;49.662;9.636;2024-01-15T00:25:21;-2.51;88.13
70851;DHT22;58475;49.662;9.636;2024-01-15T00:27:46;-2.33;87.56
70851;DHT22;58475;49.662;9.636;2024-01-15T00:30:13;-2.37;87.60
70851;DHT22;58475;49.662;9.636;2024-01-15T00:32:38;-2.68;88.17
70851;DHT22;58475;49.662;9.636;2024-01-15T00:35:04;-2.77;88.82
70851;DHT22;58475;49.662;9.636;2024-01-15T00:37:29;-2.77;89.14
70851;DHT22;58475;49.662;9.636;2024-01-15T00:39:55;-2.71;88.81
70851;DHT22;58475;49.662;9.636;2024-01-15T00:42:20;-2.60;88.63
70851;DHT22;58475;49.662;9.636;2024-01-15T00:44:45;-2.47;88.05
70851;DHT22;58475;49.662;9.636;2024-01-15T00:47:11;-2.46;88.59
70851;DHT22;58475;49.662;9.636;2024-01-15T00:49:36;-2.44;88.33
70851;DHT22;58475;49.662;9.636;2024-01-15T00:52:01;-2.37;87.77
70851;DHT22;58475;49.662;9.636;2024-01-15T00:54:27;-2.43;88.09
70851;DHT22;58475;49.662;9.636;2024-01-15T00:56:52;-2.41;88.63
70851;DHT22;58475;49.662;9.636;2024-01-15T00:59:17;-2.48;88.31
70851;DHT22;58475;49.662;9.636;2024-01-15T01:01:43;-2.38;88.26
70851;DHT22;58475;49.662;9.636;2024-01-15T01:04:09;-2.46;88.60
70851;DHT22;58475;49.662;9.636;2024-01-15T01:06:35;-2.38;88.51
70851;DHT22;58475;49.662;9.636;2024-01-15T01:09:00;-2.36;88.31
70851;DHT22;58475;49.662;9.636;2024-01-15T01:11:26;-2.33;88.25
70851;DHT22;58475;49.662;9.636;2024-01-15T01:13:51;-2.32;88.03
70851;DHT22;58475;49.662;9.636;2024-01-15T01:16:16;-2.43;88.65
70851;DHT22;58475;49.662;9.636;2024-01-15T01:18:42;-2.40;88.87
70851;DHT22;58475;49.662;9.636;2024-01-15T01:21:07;-2.34;88.86
70851;DHT22;58475;49.662;9.636;2024-01-15T01:23:32;-2.17;88.01
70851;DHT22;58475;49.662;9.636;2024-01-15T01:25:58;-2.23;88.09
70851;DHT22;58475;49.662;9.636;2024-01-15T01:28:24;-2.25;87.95
70851;DHT22;58475;49.662;9.636;2024-01-15T01:30:49;-2.07;87.34
70851;DHT22;58475;49.662;9.636;2024-01-15T01:33:15;-2.05;87.37
70851;DHT22;58475;49.662;9.636;2024-01-15T01:35:40;-2.17;88.15
70851;DHT22;58475;49.662;9.636;2024-01-15T01:38:06;-2.25;88.63
70851;DHT22;58475;49.662;9.636;2024-01-15T01:40:31;-2.20;88.57
70851;DHT22;58475;49.662;9.636;2024-01-15T01:42:56;-2.20;88.25
70851;DHT22;58475;49.662;9.636;2024-01-15T01:45:22;-2.19;88.35
70851;DHT22;58475;49.662;9.636;2024-01-15T01:47:47;-2.17;88.00
70851;DHT22;58475;49.662;9.636;2024-01-15T01:50:13;-2.32;88.34
70851;DHT22;58475;49.662;9.636;2024-01-15T01:52:39;-2.22;88.45
70851;DHT22;58475;49.662;9.636;2024-01-15T01:55:06;-2.19;88.32
70851;DHT22;58475;49.662;9.636;2024-01-15T01:57:32;-2.20;88.42
70851;DHT22;58475;49.662;9.636;2024-01-15T02:00:00;-2.14;88.47
70851;DHT22;58475;49.662;9.636;2024-01-15T02:02:37;-2.07;88.00
70851;DHT22;58475;49.662;9.636;2024-01-15T02:05:04;-1.99;87.66
70851;DHT22;58475;49.662;9.636;2024-01-15T02:07:29;-2.16;88.02
70851;DHT22;58475;49.662;9.636;2024-01-15T02:09:55;-2.20;88.65
70851;DHT22;58475;49.662;9.636;2024-01-15T02:12:21;-2.02;87.86
70851;DHT22;58475;49.662;9.636;2024-01-15T02:14:47;-2.13;88.59
70851;DHT22;58475;49.662;9.636;2024-01-15T02:17:12;-2.05;88.49
70851;DHT22;58475;49.662;9.636;2024-01-15T02:19:37;-2.06;88.69
70851;DHT22;58475;49.662;9.636;2024-01-15T02:22:04;-2.23;89.50
70851;DHT22;58475;49.662;9.636;2024-01-15T02:24:30;-2.20;89.59
70851;DHT22;58475;49.662;9.636;2024-01-15T02:26:55;-2.19;89.71
70851;DHT22;58475;49.662;9.636;2024-01-15T02:29:21;-2.27;89.93
70851;DHT22;58475;49.662;9.636;2024-01-15T02:31:46;-2.27;89.49
70851;DHT22;58475;49.662;9.636;2024-01-15T02:34:11;-2.07;88.98
70851;DHT22;58475;49.662;9.636;2024-01-15T02:36:37;-2.26;89.74
70851;DHT22;58475;49.662;9.636;2024-01-15T02:39:02;-1.97;88.60
70851;DHT22;58475;49.662;9.636;2024-01-15T02:41:28;-2.09;88.70
70851;DHT22;58475;49.662;9.636;2024-01-15T02:43:53;-2.11;88.27
70851;DHT22;58475;49.662;9.636;2024-01-15T02:46:19;-2.03;88.32
70851;DHT22;58475;49.662;9.636;2024-01-15T02:48:44;-2.05;88.70
70851;DHT22;58475;49.662;9.636;2024-01-15T02:51:09;-2.20;88.69
70851;DHT22;58475;49.662;9.636;2024-01-15T02:53:36;-2.13;88.34
70851;DHT22;58475;49.662;9.636;2024-01-15T02:56:01;-1.96;88.06
70851;DHT22;58475;49.662;9.636;2024-01-15T02:58:27;-1.85;87.85
70851;DHT22;58475;49.662;9.636;2024-01-15T03:00:52;-1.97;88.07
70851;DHT22;58475;49.662;9.636;2024-01-15T03:03:17;-1.95;87.88
70851;DHT22;58475;49.662;9.636;2024-01-15T03:05:42;-1.89;87.84
70851;DHT22;58475;49.662;9.636;2024-01-15T03:08:08;-1.93;88.07
70851;DHT22;58475;49.662;9.636;2024-01-15T03:10:33;-1.88;88.01
70851;DHT22;58475;49.662;9.636;2024-01-15T03:12:58;-1.82;87.46
70851;DHT22;58475;49.662;9.636;2024-01-15T03:15:24;-1.97;88.33
70851;DHT22;58475;49.662;9.636;2024-01-15T03:17:49;-1.88;88.23
70851;DHT22;58475;49.662;9.636;2024-01-15T03:20:15;-1.81;87.93
70851;DHT22;58475;49.662;9.636;2024-01-15T03:22:40;-1.81;87.98
70851;DHT22;58475;49.662;9.636;2024-01-15T03:25:06;-1.78;87.84
70851;DHT22;58475;49.662;9.636;2024-01-15T03:27:31;-1.83;88.19
70851;DHT22;58475;49.662;9.636;2024-01-15T03:29:56;-1.62;87.51
70851;DHT22;58475;49.662;9.636;2024-01-15T03:32:22;-1.65;87.51
70851;DHT22;58475;49.662;9.636;2024-01-15T03:34:47;-1.64;87.58
70851;DHT22;58475;49.662;9.636;2024-01-15T03:37:13;-1.72;87.47
70851;DHT22;58475;49.662;9.636;2024-01-15T03:39:39;-1.64;87.06
70851;DHT22;58475;49.662;9.636;2024-01-15T03:42:04;-1.71;87.84
70851;DHT22;58475;49.662;9.636;2024-01-15T03:44:29;-1.61;87.55
70851;DHT22;58475;49.662;9.636;2024-01-15T03:46:55;-1.72;87.89
70851;DHT22;58475;49.662;9.636;2024-01-15T03:49:20;-1.68;87.73
70851;DHT22;58475;49.662;9.636;2024-01-15T03:51:45;-1.78;87.91
70851;DHT22;58475;49.662;9.636;2024-01-15T03:54:11;-1.81;88.17
70851;DHT22;58475;49.662;9.636;2024-01-15T03:56:36;-1.71;88.03
70851;DHT22;58475;49.662;9.636;2024-01-15T03:59:02;-1.64;87.81
70851;DHT22;58475;49.662;9.636;2024-01-15T04:01:27;-1.61;87.45
70851;DHT22;58475;49.662;9.636;2024-01-15T04:03:52;-1.66;87.59
70851;DHT22;58475;49.662;9.636;2024-01-15T04:06:18;-1.72;87.90
70851;DHT22;58475;49.662;9.636;2024-01-15T04:08:43;-1.76;88.12
70851;DHT22;58475;49.662;9.636;2024-01-15T04:11:09;-1.72;88.16
70851;DHT22;58475;49.662;9.636;2024-01-15T04:13:34;-1.61;87.78
70851;DHT22;58475;49.662;9.636;2024-01-15T04:16:00;-1.68;88.01
70851;DHT22;58475;49.662;9.636;2024-01-15T04:18:25;-1.69;87.96
70851;DHT22;58475;49.662;9.636;2024-01-15T04:20:51;-1.55;87.50
70851;DHT22;58475;49.662;9.636;2024-01-15T04:23:16;-1.64;87.50
70851;DHT22;58475;49.662;9.636;2024-01-15T04:25:42;-1.62;87.98
70851;DHT22;58475;49.662;9.636;2024-01-15T04:28:08;-1.71;88.06
70851;DHT22;58475;49.662;9.636;2024-01-15T04:30:34;-1.72;87.98
70851;DHT22;58475;49.662;9.636;2024-01-15T04:32:59;-1.85;88.58
70851;DHT22;58475;49.662;9.636;2024-01-15T04:35:24;-1.81;88.47
70851;DHT22;58475;49.662;9.636;2024-01-15T04:37:50;-1.75;88.41
70851;DHT22;58475;49.662;9.636;2024-01-15T04:40:15;-1.75;88.60
70851;DHT22;58475;49.662;9.636;2024-01-15T04:42:41;-1.75;89.38
70851;DHT22;58475;49.662;9.636;2024-01-15T04:45:06;-1.76;89.62
70851;DHT22;58475;49.662;9.636;2024-01-15T04:47:32;-1.69;88.54
70851;DHT22;58475;49.662;9.636;2024-01-15T04:49:57;-1.74;88.96
70851;DHT22;58475;49.662;9.636;2024-01-15T04:52:22;-1.74;89.17
70851;DHT22;58475;49.662;9.636;2024-01-15T04:54:48;-1.75;89.57
70851;DHT22;58475;49.662;9.636;2024-01-15T04:57:14;-1.75;88.95
70851;DHT22;58475;49.662;9.636;2024-01-15T04:59:40;-1.72;89.01
70851;DHT22;58475;49.662;9.636;2024-01-15T05:02:05;-1.78;89.22
70851;DHT22;58475;49.662;9.636;2024-01-15T05:04:30;-1.82;89.20
70851;DHT22;58475;49.662;9.636;2024-01-15T05:06:56;-1.72;89.01
70851;DHT22;58475;49.662;9.636;2024-01-15T05:09:21;-1.68;88.76
70851;DHT22;58475;49.662;9.636;2024-01-15T05:11:47;-1.61;88.10
70851;DHT22;58475;49.662;9.636;2024-01-15T05:14:12;-1.64;88.18
70851;DHT22;58475;49.662;9.636;2024-01-15T05:16:38;-1.45;87.60
70851;DHT22;58475;49.662;9.636;2024-01-15T05:19:04;-1.62;88.07
70851;DHT22;58475;49.662;9.636;2024-01-15T05:21:29;-1.79;88.64
70851;DHT22;58475;49.662;9.636;2024-01-15T05:23:54;-1.86;88.85
70851;DHT22;58475;49.662;9.636;2024-01-15T05:26:20;-1.85;88.90
70851;DHT22;58475;49.662;9.636;2024-01-15T05:28:45;-1.81;88.79
70851;DHT22;58475;49.662;9.636;2024-01-15T05:31:11;-1.83;89.15
70851;DHT22;58475;49.662;9.636;2024-01-15T05:33:37;-1.90;89.69
70851;DHT22;58475;49.662;9.636;2024-01-15T05:36:02;-1.86;89.72
70851;DHT22;58475;49.662;9.636;2024-01-15T05:38:28;-1.83;90.19
70851;DHT22;58475;49.662;9.636;2024-01-15T05:40:53;-1.88;90.64
70851;DHT22;58475;49.662;9.636;2024-01-15T05:43:19;-1.93;90.72
70851;DHT22;58475;49.662;9.636;2024-01-15T05:45:44;-1.83;89.85
70851;DHT22;58475;49.662;9.636;2024-01-15T05:48:10;-1.85;89.80
70851;DHT22;58475;49.662;9.636;2024-01-15T05:50:36;-1.92;89.79
70851;DHT22;58475;49.662;9.636;2024-01-15T05:53:01;-1.90;89.52
70851;DHT22;58475;49.662;9.636;2024-01-15T05:55:28;-1.79;89.58
70851;DHT22;58475;49.662;9.636;2024-01-15T05:57:53;-1.66;89.51
70851;DHT22;58475;49.662;9.636;2024-01-15T06:00:18;-1.75;89.40
70851;DHT22;58475;49.662;9.636;2024-01-15T06:02:44;-1.79;89.75
70851;DHT22;58475;49.662;9.636;2024-01-15T06:05:09;-1.75;89.93
70851;DHT22;58475;49.662;9.636;2024-01-15T06:07:35;-1.59;89.63
70851;DHT22;58475;49.662;9.636;2024-01-15T06:10:01;-1.48;88.36
70851;DHT22;58475;49.662;9.636;2024-01-15T06:12:28;-1.57;88.34
70851;DHT22;58475;49.662;9.636;2024-01-15T06:14:53;-1.69;88.91
70851;DHT22;58475;49.662;9.636;2024-01-15T06:17:19;-1.76;89.19
70851;DHT22;58475;49.662;9.636;2024-01-15T06:19:44;-1.82;89.08
70851;DHT22;58475;49.662;9.636;2024-01-15T06:22:09;-1.72;89.26
70851;DHT22;58475;49.662;9.636;2024-01-15T06:24:35;-1.85;89.30
70851;DHT22;58475;49.662;9.636;2024-01-15T06:27:00;-1.72;88.79
70851;DHT22;58475;49.662;9.636;2024-01-15T06:29:26;-1.76;89.14
70851;DHT22;58475;49.662;9.636;2024-01-15T06:31:52;-1.85;89.26
70851;DHT22;58475;49.662;9.636;2024-01-15T06:34:17;-1.78;89.21
70851;DHT22;58475;49.662;9.636;2024-01-15T06:36:43;-1.69;88.86
70851;DHT22;58475;49.662;9.636;2024-01-15T06:39:09;-1.78;89.06
70851;DHT22;58475;49.662;9.636;2024-01-15T06:41:35;-1.79;89.14
70851;DHT22;58475;49.662;9.636;2024-01-15T06:44:06;-1.69;88.73
70851;DHT22;58475;49.662;9.636;2024-01-15T06:46:32;-1.68;89.02
70851;DHT22;58475;49.662;9.636;2024-01-15T06:48:57;-1.71;88.96
70851;DHT22;58475;49.662;9.636;2024-01-15T06:51:22;-1.71;88.95
70851;DHT22;58475;49.662;9.636;2024-01-15T06:53:48;-1.58;88.94
70851;DHT22;58475;49.662;9.636;2024-01-15T06:56:13;-1.74;89.17
70851;DHT22;58475;49.662;9.636;2024-01-15T06:58:38;-1.78;89.22
70851;DHT22;58475;49.662;9.636;2024-01-15T07:01:04;-1.69;89.21
70851;DHT22;58475;49.662;9.636;2024-01-15T07:03:29;-1.81;89.47
70851;DHT22;58475;49.662;9.636;2024-01-15T07:05:55;-1.74;89.28
70851;DHT22;58475;49.662;9.636;2024-01-15T07:08:20;-1.48;88.82
70851;DHT22;58475;49.662;9.636;2024-01-15T07:10:45;-1.51;88.52
70851;DHT22;58475;49.662;9.636;2024-01-15T07:13:11;-1.59;88.64
70851;DHT22;58475;49.662;9.636;2024-01-15T07:15:36;-1.54;88.95
70851;DHT22;58475;49.662;9.636;2024-01-15T07:18:01;-1.50;89.32
70851;DHT22;58475;49.662;9.636;2024-01-15T07:20:27;-1.48;89.09
70851;DHT22;58475;49.662;9.636;2024-01-15T07:22:52;-1.57;88.80
70851;DHT22;58475;49.662;9.636;2024-01-15T07:25:18;-1.65;89.23
70851;DHT22;58475;49.662;9.636;2024-01-15T07:27:43;-1.58;88.89
70851;DHT22;58475;49.662;9.636;2024-01-15T07:30:11;-1.44;88.49
70851;DHT22;58475;49.662;9.636;2024-01-15T07:32:36;-1.50;89.01
70851;DHT22;58475;49.662;9.636;2024-01-15T07:35:02;-1.48;89.02
70851;DHT22;58475;49.662;9.636;2024-01-15T07:37:28;-1.34;88.73
70851;DHT22;58475;49.662;9.636;2024-01-15T07:39:53;-1.26;88.26
70851;DHT22;58475;49.662;9.636;2024-01-15T07:42:19;-1.52;88.73
70851;DHT22;58475;49.662;9.636;2024-01-15T07:44:44;-1.40;88.97
70851;DHT22;58475;49.662;9.636;2024-01-15T07:47:10;-1.35;88.41
70851;DHT22;58475;49.662;9.636;2024-01-15T07:49:35;-1.33;88.20
70851;DHT22;58475;49.662;9.636;2024-01-15T07:52:01;-1.30;88.88
70851;DHT22;58475;49.662;9.636;2024-01-15T07:54:26;-1.30;88.59
70851;DHT22;58475;49.662;9.636;2024-01-15T07:57:02;-1.35;88.83
70851;DHT22;58475;49.662;9.636;2024-01-15T07:59:30;-1.37;88.76
70851;DHT22;58475;49.662;9.636;2024-01-15T08:01:56;-1.27;88.67
70851;DHT22;58475;49.662;9.636;2024-01-15T08:04:21;-1.14;88.70
70851;DHT22;58475;49.662;9.636;2024-01-15T08:06:47;-1.13;88.74
70851;DHT22;58475;49.662;9.636;2024-01-15T08:09:12;-1.10;89.00
70851;DHT22;58475;49.662;9.636;2024-01-15T08:11:41;-1.00;88.67
70851;DHT22;58475;49.662;9.636;2024-01-15T08:14:08;-1.01;88.19
70851;DHT22;58475;49.662;9.636;2024-01-15T08:16:33;-0.96;88.03
70851;DHT22;58475;49.662;9.636;2024-01-15T08:18:59;-1.03;88.04
70851;DHT22;58475;49.662;9.636;2024-01-15T08:21:24;-1.18;88.74
70851;DHT22;58475;49.662;9.636;2024-01-15T08:23:49;-1.01;88.82
70851;DHT22;58475;49.662;9.636;2024-01-15T08:26:15;-1.04;88.58
70851;DHT22;58475;49.662;9.636;2024-01-15T08:28:40;-0.95;88.42
70851;DHT22;58475;49.662;9.636;2024-01-15T08:31:06;-0.86;88.43
70851;DHT22;58475;49.662;9.636;2024-01-15T08:33:31;-0.85;88.27
70851;DHT22;58475;49.662;9.636;2024-01-15T08:35:57;-0.69;87.84
70851;DHT22;58475;49.662;9.636;2024-01-15T08:38:22;-0.73;88.32
70851;DHT22;58475;49.662;9.636;2024-01-15T08:40:49;-0.61;88.63
70851;DHT22;58475;49.662;9.636;2024-01-15T08:43:15;-0.69;89.08
70851;DHT22;58475;49.662;9.636;2024-01-15T08:45:40;-0.66;89.32
70851;DHT22;58475;49.662;9.636;2024-01-15T08:48:05;-0.58;89.81
70851;DHT22;58475;49.662;9.636;2024-01-15T08:50:32;-0.58;90.17
70851;DHT22;58475;49.662;9.636;2024-01-15T08:52:58;-0.55;90.44
70851;DHT22;58475;49.662;9.636;2024-01-15T08:55:23;-0.65;90.88
70851;DHT22;58475;49.662;9.636;2024-01-15T08:57:49;-0.54;90.32
70851;DHT22;58475;49.662;9.636;2024-01-15T09:00:15;-0.32;89.81
70851;DHT22;58475;49.662;9.636;2024-01-15T09:02:41;-0.27;89.92
70851;DHT22;58475;49.662;9.636;2024-01-15T09:05:07;-0.35;89.98
70851;DHT22;58475;49.662;9.636;2024-01-15T09:07:33;-0.42;90.56
70851;DHT22;58475;49.662;9.636;2024-01-15T09:09:58;-0.46;90.61
70851;DHT22;58475;49.662;9.636;2024-01-15T09:12:27;-0.44;90.19
70851;DHT22;58475;49.662;9.636;2024-01-15T09:14:52;-0.45;90.83
70851;DHT22;58475;49.662;9.636;2024-01-15T09:17:19;-0.25;90.30
70851;DHT22;58475;49.662;9.636;2024-01-15T09:19:45;-0.21;90.09
70851;DHT22;58475;49.662;9.636;2024-01-15T09:22:12;-0.08;89.66
70851;DHT22;58475;49.662;9.636;2024-01-15T09:24:40;-0.21;89.55
70851;DHT22;58475;49.662;9.636;2024-01-15T09:27:05;-0.08;89.67
70851;DHT22;58475;49.662;9.636;2024-01-15T09:29:31;-0.01;89.79
70851;DHT22;58475;49.662;9.636;2024-01-15T09:31:57;-0.08;89.77
70851;DHT22;58475;49.662;9.636;2024-01-15T09:34:22;-0.03;89.63
70851;DHT22;58475;49.662;9.636;2024-01-15T09:36:48;0.10;89.16
70851;DHT22;58475;49.662;9.636;2024-01-15T09:39:14;0.21;88.20
70851;DHT22;58475;49.662;9.636;2024-01-15T09:41:40;0.24;88.41
70851;DHT22;58475;49.662;9.636;2024-01-15T09:44:06;0.24;88.22
70851;DHT22;58475;49.662;9.636;2024-01-15T09:46:35;0.31;87.66
70851;DHT22;58475;49.662;9.636;2024-01-15T09:49:00;0.23;88.16
70851;DHT22;58475;49.662;9.636;2024-01-15T09:51:29;0.40;87.54
70851;DHT22;58475;49.662;9.636;2024-01-15T09:53:57;0.57;87.56
70851;DHT22;58475;49.662;9.636;2024-01-15T09:56:23;0.66;86.58
70851;DHT22;58475;49.662;9.636;2024-01-15T09:58:49;0.64;86.52
70851;DHT22;58475;49.662;9.636;2024-01-15T10:01:16;0.64;86.14
70851;DHT22;58475;49.662;9.636;2024-01-15T10:03:42;0.51;86.14
70851;DHT22;58475;49.662;9.636;2024-01-15T10:06:08;0.48;86.27
70851;DHT22;58475;49.662;9.636;2024-01-15T10:08:36;0.40;86.61
70851;DHT22;58475;49.662;9.636;2024-01-15T10:11:02;0.21;86.96
70851;DHT22;58475;49.662;9.636;2024-01-15T10:13:30;0.24;87.11
70851;DHT22;58475;49.662;9.636;2024-01-15T10:15:55;0.44;86.47
70851;DHT22;58475;49.662;9.636;2024-01-15T10:18:21;0.20;86.83
70851;DHT22;58475;49.662;9.636;2024-01-15T10:20:47;0.25;87.28
70851;DHT22;58475;49.662;9.636;2024-01-15T10:23:14;0.31;87.10
70851;DHT22;58475;49.662;9.636;2024-01-15T10:25:41;0.30;87.47
70851;DHT22;58475;49.662;9.636;2024-01-15T10:28:07;0.33;87.48
70851;DHT22;58475;49.662;9.636;2024-01-15T10:30:33;0.57;86.26
70851;DHT22;58475;49.662;9.636;2024-01-15T10:33:03;0.30;86.55
70851;DHT22;58475;49.662;9.636;2024-01-15T10:35:33;0.48;85.97
70851;DHT22;58475;49.662;9.636;2024-01-15T10:38:00;0.50;86.32
70851;DHT22;58475;49.662;9.636;2024-01-15T10:40:25;0.50;86.30
70851;DHT22;58475;49.662;9.636;2024-01-15T10:42:51;0.54;86.05
70851;DHT22;58475;49.662;9.636;2024-01-15T10:45:17;0.31;86.60
70851;DHT22;58475;49.662;9.636;2024-01-15T10:47:43;0.28;86.57
70851;DHT22;58475;49.662;9.636;2024-01-15T10:50:09;0.28;86.96
70851;DHT22;58475;49.662;9.636;2024-01-15T10:52:35;0.25;86.88
70851;DHT22;58475;49.662;9.636;2024-01-15T10:55:03;0.25;87.04
70851;DHT22;58475;49.662;9.636;2024-01-15T10:57:29;0.30;86.92
70851;DHT22;58475;49.662;9.636;2024-01-15T10:59:54;0.33;86.96
70851;DHT22;58475;49.662;9.636;2024-01-15T11:02:20;0.34;86.89
70851;DHT22;58475;49.662;9.636;2024-01-15T11:04:45;0.54;86.38
70851;DHT22;58475;49.662;9.636;2024-01-15T11:07:13;0.44;86.68
70851;DHT22;58475;49.662;9.636;2024-01-15T11:09:38;0.40;87.38
70851;DHT22;58475;49.662;9.636;2024-01-15T11:12:10;0.53;86.93
70851;DHT22;58475;49.662;9.636;2024-01-15T11:17:04;0.38;86.68
70851;DHT22;58475;49.662;9.636;2024-01-15T11:19:38;0.53;87.05
70851;DHT22;58475;49.662;9.636;2024-01-15T11:22:07;0.51;86.84
70851;DHT22;58475;49.662;9.636;2024-01-15T11:24:40;0.38;87.07
70851;DHT22;58475;49.662;9.636;2024-01-15T11:27:07;0.38;87.06
70851;DHT22;58475;49.662;9.636;2024-01-15T11:29:37;0.58;86.79
70851;DHT22;58475;49.662;9.636;2024-01-15T11:32:07;0.58;86.40
70851;DHT22;58475;49.662;9.636;2024-01-15T11:34:56;0.47;86.95
70851;DHT22;58475;49.662;9.636;2024-01-15T11:37:26;0.54;87.01
70851;DHT22;58475;49.662;9.636;2024-01-15T11:40:00;0.57;87.04
70851;DHT22;58475;49.662;9.636;2024-01-15T11:42:26;0.75;86.84
70851;DHT22;58475;49.662;9.636;2024-01-15T11:44:53;0.61;86.71
70851;DHT22;58475;49.662;9.636;2024-01-15T11:47:53;0.45;87.21
70851;DHT22;58475;49.662;9.636;2024-01-15T11:50:26;0.48;88.23
70851;DHT22;58475;49.662;9.636;2024-01-15T11:53:02;0.36;88.38
70851;DHT22;58475;49.662;9.636;2024-01-15T11:55:32;0.40;88.70
70851;DHT22;58475;49.662;9.636;2024-01-15T11:58:00;0.38;88.79
70851;DHT22;58475;49.662;9.636;2024-01-15T12:00:26;0.47;88.72
70851;DHT22;58475;49.662;9.636;2024-01-15T12:02:51;0.31;89.12
70851;DHT22;58475;49.662;9.636;2024-01-15T12:05:18;0.41;89.54
70851;DHT22;58475;49.662;9.636;2024-01-15T12:07:46;0.36;89.41
70851;DHT22;58475;49.662;9.636;2024-01-15T12:10:14;0.38;89.65
70851;DHT22;58475;49.662;9.636;2024-01-15T12:12:59;0.43;89.39
70851;DHT22;58475;49.662;9.636;2024-01-15T12:15:29;0.27;90.13
70851;DHT22;58475;49.662;9.636;2024-01-15T12:17:59;0.41;90.06
70851;DHT22;58475;49.662;9.636;2024-01-15T12:20:29;0.24;90.42
70851;DHT22;58475;49.662;9.636;2024-01-15T12:22:55;0.57;89.60
70851;DHT22;58475;49.662;9.636;2024-01-15T12:25:24;0.50;89.84
70851;DHT22;58475;49.662;9.636;2024-01-15T12:27:50;0.57;89.96
70851;DHT22;58475;49.662;9.636;2024-01-15T12:30:16;0.43;89.98
70851;DHT22;58475;49.662;9.636;2024-01-15T12:32:42;0.61;89.36
70851;DHT22;58475;49.662;9.636;2024-01-15T12:35:08;0.66;88.91
70851;DHT22;58475;49.662;9.636;2024-01-15T12:37:38;0.55;88.60
70851;DHT22;58475;49.662;9.636;2024-01-15T12:40:04;0.68;88.07
70851;DHT22;58475;49.662;9.636;2024-01-15T12:42:32;0.60;88.09
70851;DHT22;58475;49.662;9.636;2024-01-15T12:44:58;0.50;88.10
70851;DHT22;58475;49.662;9.636;2024-01-15T12:47:23;0.61;87.68
70851;DHT22;58475;49.662;9.636;2024-01-15T12:49:54;0.53;88.13
70851;DHT22;58475;49.662;9.636;2024-01-15T12:52:20;0.78;87.59
70851;DHT22;58475;49.662;9.636;2024-01-15T12:54:51;0.99;86.29
70851;DHT22;58475;49.662;9.636;2024-01-15T12:57:17;1.22;86.38
70851;DHT22;58475;49.662;9.636;2024-01-15T12:59:43;1.23;85.75
70851;DHT22;58475;49.662;9.636;2024-01-15T13:02:10;1.32;85.75
70851;DHT22;58475;49.662;9.636;2024-01-15T13:04:36;1.34;85.32
70851;DHT22;58475;49.662;9.636;2024-01-15T13:07:02;1.44;84.94
70851;DHT22;58475;49.662;9.636;2024-01-15T13:09:27;1.39;84.61
70851;DHT22;58475;49.662;9.636;2024-01-15T13:11:53;1.70;83.86
70851;DHT22;58475;49.662;9.636;2024-01-15T13:14:18;1.55;83.83
70851;DHT22;58475;49.662;9.636;2024-01-15T13:16:44;1.58;83.98
70851;DHT22;58475;49.662;9.636;2024-01-15T13:19:09;1.65;82.93
70851;DHT22;58475;49.662;9.636;2024-01-15T13:21:37;1.68;83.25
70851;DHT22;58475;49.662;9.636;2024-01-15T13:24:02;1.84;83.14
70851;DHT22;58475;49.662;9.636;2024-01-15T13:26:28;1.67;83.59
70851;DHT22;58475;49.662;9.636;2024-01-15T13:28:53;1.47;84.13
70851;DHT22;58475;49.662;9.636;2024-01-15T13:31:19;1.44;84.89
70851;DHT22;58475;49.662;9.636;2024-01-15T13:33:44;1.29;85.46
70851;DHT22;58475;49.662;9.636;2024-01-15T13:36:09;1.53;85.34
70851;DHT22;58475;49.662;9.636;2024-01-15T13:38:38;1.40;85.82
70851;DHT22;58475;49.662;9.636;2024-01-15T13:41:07;1.32;86.02
70851;DHT22;58475;49.662;9.636;2024-01-15T13:43:33;1.43;85.85
70851;DHT22;58475;49.662;9.636;2024-01-15T13:45:59;1.46;85.60
70851;DHT22;58475;49.662;9.636;2024-01-15T13:48:24;1.43;86.05
70851;DHT22;58475;49.662;9.636;2024-01-15T13:50:50;1.33;86.13
70851;DHT22;58475;49.662;9.636;2024-01-15T13:53:16;1.27;86.10
70851;DHT22;58475;49.662;9.636;2024-01-15T13:55:41;1.30;86.49
70851;DHT22;58475;49.662;9.636;2024-01-15T13:58:06;1.29;86.26
70851;DHT22;58475;49.662;9.636;2024-01-15T14:00:32;1.43;86.46
70851;DHT22;58475;49.662;9.636;2024-01-15T14:02:58;1.26;86.24
70851;DHT22;58475;49.662;9.636;2024-01-15T14:05:24;1.16;86.37
70851;DHT22;58475;49.662;9.636;2024-01-15T14:07:49;1.26;86.36
70851;DHT22;58475;49.662;9.636;2024-01-15T14:10:14;1.30;85.78
70851;DHT22;58475;49.662;9.636;2024-01-15T14:12:40;1.24;86.74
70851;DHT22;58475;49.662;9.636;2024-01-15T14:15:06;1.42;87.20
70851;DHT22;58475;49.662;9.636;2024-01-15T14:17:32;1.16;87.64
70851;DHT22;58475;49.662;9.636;2024-01-15T14:19:57;1.30;87.77
70851;DHT22;58475;49.662;9.636;2024-01-15T14:22:22;1.22;88.25
70851;DHT22;58475;49.662;9.636;2024-01-15T14:24:48;1.06;89.45
70851;DHT22;58475;49.662;9.636;2024-01-15T14:27:13;1.07;88.47
70851;DHT22;58475;49.662;9.636;2024-01-15T14:29:39;0.92;89.44
70851;DHT22;58475;49.662;9.636;2024-01-15T14:32:04;1.00;89.46
70851;DHT22;58475;49.662;9.636;2024-01-15T14:34:30;1.02;89.24
70851;DHT22;58475;49.662;9.636;2024-01-15T14:36:55;0.99;89.52
70851;DHT22;58475;49.662;9.636;2024-01-15T14:39:22;0.81;89.51
70851;DHT22;58475;49.662;9.636;2024-01-15T14:41:48;0.92;89.66
70851;DHT22;58475;49.662;9.636;2024-01-15T14:44:13;0.95;89.54
70851;DHT22;58475;49.662;9.636;2024-01-15T14:46:39;0.95;89.42
70851;DHT22;58475;49.662;9.636;2024-01-15T14:49:05;0.92;89.12
70851;DHT22;58475;49.662;9.636;2024-01-15T14:51:30;0.88;88.72
70851;DHT22;58475;49.662;9.636;2024-01-15T14:53:56;0.85;89.17
70851;DHT22;58475;49.662;9.636;2024-01-15T14:56:22;0.82;89.12
70851;DHT22;58475;49.662;9.636;2024-01-15T14:58:47;0.91;88.44
70851;DHT22;58475;49.662;9.636;2024-01-15T15:01:13;0.72;89.23
70851;DHT22;58475;49.662;9.636;2024-01-15T15:03:39;0.75;88.73
70851;DHT22;58475;49.662;9.636;2024-01-15T15:06:04;0.75;88.28
70851;DHT22;58475;49.662;9.636;2024-01-15T15:08:30;0.84;88.33
70851;DHT22;58475;49.662;9.636;2024-01-15T15:10:55;0.74;88.15
70851;DHT22;58475;49.662;9.636;2024-01-15T15:13:22;0.81;87.82
70851;DHT22;58475;49.662;9.636;2024-01-15T15:15:48;0.89;87.60
70851;DHT22;58475;49.662;9.636;2024-01-15T15:18:13;0.89;87.09
70851;DHT22;58475;49.662;9.636;2024-01-15T15:20:39;0.85;87.09
70851;DHT22;58475;49.662;9.636;2024-01-15T15:23:04;0.95;86.06
70851;DHT22;58475;49.662;9.636;2024-01-15T15:25:34;1.02;86.09
70851;DHT22;58475;49.662;9.636;2024-01-15T15:27:59;1.05;85.62
70851;DHT22;58475;49.662;9.636;2024-01-15T15:30:24;1.07;85.43
70851;DHT22;58475;49.662;9.636;2024-01-15T15:32:51;1.07;85.66